createdAt,value
2023-03-05T00:00:12.120Z,26.71
2023-03-05T00:01:12.076Z,28.35
2023-03-05T00:02:12.100Z,26.04
2023-03-05T00:03:12.118Z,30.48
2023-03-05T00:04:11.993Z,27.12
2023-03-05T00:55:27.410Z,25.00
2023-03-05T00:56:28.355Z,25.00
2023-03-05T00:57:28.296Z,25.00
2023-03-05T00:58:28.264Z,25.00
2023-03-05T00:59:28.226Z,25.00
2023-03-05T01:00:28.190Z,25.00
2023-03-05T01:01:28.178Z,0.00
2023-03-05T01:02:28.113Z,0.00
2023-03-05T01:03:28.075Z,0.00
2023-03-05T01:04:28.036Z,0.00
2023-03-05T01:05:28.039Z,0.00
2023-03-05T01:06:27.962Z,0.00
2023-03-05T01:07:27.918Z,2.63
2023-03-05T01:08:27.977Z,20.71
2023-03-05T01:09:27.850Z,24.92
2023-03-05T01:10:27.838Z,26.05
2023-03-05T01:11:27.817Z,25.72
2023-03-05T01:12:27.764Z,25.85
2023-03-05T01:13:27.720Z,26.53
2023-03-05T01:14:27.712Z,25.84
2023-03-05T01:15:27.661Z,25.00
2023-03-05T01:16:27.782Z,25.00
2023-03-05T01:17:27.577Z,25.00
2023-03-05T01:18:27.549Z,27.68
2023-03-05T01:19:27.536Z,25.02
2023-03-05T01:20:27.482Z,25.00
2023-03-05T01:21:27.450Z,27.48
2023-03-05T01:22:27.431Z,27.45
2023-03-05T01:23:27.388Z,25.82
2023-03-05T01:24:27.373Z,25.88
2023-03-05T01:25:27.332Z,25.00
2023-03-05T01:26:27.301Z,27.64
2023-03-05T01:27:27.292Z,29.37
2023-03-05T01:28:27.242Z,25.00
2023-03-05T01:29:27.215Z,26.24
2023-03-05T01:30:27.192Z,26.99
2023-03-05T01:31:27.213Z,28.86
2023-03-05T01:32:27.177Z,26.75
2023-03-05T01:33:27.096Z,27.74
2023-03-05T01:34:27.055Z,25.00
2023-03-05T01:35:27.123Z,28.53
2023-03-05T01:36:26.989Z,28.81
2023-03-05T01:37:26.980Z,25.81
2023-03-05T01:38:26.941Z,26.54
2023-03-05T01:39:26.911Z,29.15
2023-03-05T01:40:26.883Z,26.17
2023-03-05T01:41:26.850Z,27.42
2023-03-05T01:42:26.832Z,28.43
2023-03-05T01:43:26.838Z,28.66
2023-03-05T01:44:26.787Z,27.82
2023-03-05T01:45:26.861Z,27.42
2023-03-05T01:46:26.709Z,30.04
2023-03-05T01:47:26.683Z,27.47
2023-03-05T01:48:26.651Z,26.22
2023-03-05T01:49:26.620Z,27.52
2023-03-05T01:50:26.591Z,27.87
2023-03-05T01:51:26.581Z,28.68
2023-03-05T01:52:26.527Z,30.66
2023-03-05T01:53:26.499Z,26.74
2023-03-05T01:54:26.467Z,30.25
2023-03-05T01:55:26.436Z,27.07
2023-03-05T01:56:26.436Z,28.22
2023-03-05T01:57:26.374Z,28.77
2023-03-05T01:58:26.343Z,25.29
2023-03-05T01:59:26.342Z,29.43
2023-03-05T02:00:26.288Z,27.72
2023-03-05T02:01:26.335Z,27.49
2023-03-05T02:02:26.226Z,25.87
2023-03-05T02:03:26.271Z,30.19
2023-03-05T02:04:26.190Z,27.13
2023-03-05T02:05:27.086Z,28.24
2023-03-05T02:06:26.124Z,28.18
2023-03-05T02:07:26.102Z,25.41
2023-03-05T02:08:25.064Z,28.52
2023-03-05T02:09:26.040Z,27.53
2023-03-05T02:10:26.013Z,25.16
2023-03-05T02:11:25.979Z,25.65
2023-03-05T02:12:25.955Z,28.46
2023-03-05T02:13:25.932Z,27.16
2023-03-05T02:14:25.928Z,26.06
2023-03-05T02:15:25.902Z,27.60
2023-03-05T02:16:25.888Z,28.83
2023-03-05T02:17:25.824Z,28.97
2023-03-05T02:18:25.804Z,28.30
2023-03-05T02:19:25.776Z,27.06
2023-03-05T02:20:25.752Z,27.37
2023-03-05T02:21:25.735Z,27.66
2023-03-05T02:22:25.721Z,28.64
2023-03-05T02:23:25.685Z,25.94
2023-03-05T02:24:25.680Z,26.18
2023-03-05T02:25:25.628Z,28.99
2023-03-05T02:26:25.599Z,27.77
2023-03-05T02:27:25.591Z,26.96
2023-03-05T02:28:25.529Z,27.54
2023-03-05T02:29:25.499Z,28.91
2023-03-05T02:30:25.474Z,30.39
2023-03-05T02:31:25.509Z,28.13
2023-03-05T02:32:25.487Z,28.52
2023-03-05T02:33:25.386Z,28.29
2023-03-05T02:34:25.353Z,27.19
2023-03-05T02:35:25.373Z,27.50
2023-03-05T02:36:25.316Z,28.49
2023-03-05T02:37:25.270Z,27.07
2023-03-05T02:38:25.236Z,28.49
2023-03-05T02:39:25.205Z,30.79
2023-03-05T02:40:25.180Z,26.40
2023-03-05T02:41:25.156Z,29.77
2023-03-05T02:42:25.121Z,27.57
2023-03-05T02:43:25.090Z,29.98
2023-03-05T02:44:25.055Z,28.96
2023-03-05T02:45:25.027Z,27.91
2023-03-05T02:46:24.997Z,29.02
2023-03-05T02:47:24.992Z,27.38
2023-03-05T02:48:24.935Z,26.65
2023-03-05T02:49:24.902Z,28.39
2023-03-05T02:50:24.870Z,28.41
2023-03-05T02:51:24.867Z,26.68
2023-03-05T02:52:24.811Z,30.93
2023-03-05T02:53:24.783Z,30.06
2023-03-05T02:54:24.745Z,29.69
2023-03-05T02:55:24.715Z,29.58
2023-03-05T02:56:24.690Z,29.45
2023-03-05T02:57:24.884Z,28.63
2023-03-05T02:58:24.631Z,28.62
2023-03-05T02:59:24.600Z,29.88
2023-03-05T03:00:24.568Z,26.57
2023-03-05T03:01:24.697Z,29.13
2023-03-05T03:02:24.508Z,29.50
2023-03-05T03:03:24.553Z,28.36
2023-03-05T03:04:24.449Z,30.97
2023-03-05T03:05:24.421Z,29.77
2023-03-05T03:06:24.389Z,28.89
2023-03-05T03:07:24.372Z,28.98
2023-03-05T03:08:24.347Z,27.87
2023-03-05T03:09:24.307Z,30.20
2023-03-05T03:10:24.337Z,29.73
2023-03-05T03:11:24.255Z,31.00
2023-03-05T03:12:24.213Z,32.35
2023-03-05T03:13:24.183Z,30.98
2023-03-05T03:14:24.160Z,33.55
2023-03-05T03:15:24.125Z,30.07
2023-03-05T03:16:24.197Z,29.68
2023-03-05T03:17:24.060Z,29.10
2023-03-05T03:18:24.034Z,28.87
2023-03-05T03:19:24.023Z,29.18
2023-03-05T03:20:24.000Z,27.13
2023-03-05T03:21:23.980Z,30.59
2023-03-05T03:22:23.917Z,28.37
2023-03-05T03:23:23.890Z,28.45
2023-03-05T03:24:23.860Z,28.56
2023-03-05T03:25:23.833Z,26.80
2023-03-05T03:26:23.803Z,29.13
2023-03-05T03:27:23.769Z,28.80
2023-03-05T03:28:23.736Z,30.55
2023-03-05T03:29:23.705Z,32.25
2023-03-05T03:30:23.682Z,30.86
2023-03-05T03:31:23.711Z,30.01
2023-03-05T03:32:23.695Z,27.89
2023-03-05T03:33:23.582Z,26.50
2023-03-05T03:34:23.548Z,30.73
2023-03-05T03:35:23.605Z,28.76
2023-03-05T03:36:23.487Z,29.47
2023-03-05T03:37:23.451Z,26.32
2023-03-05T03:38:23.418Z,28.17
2023-03-05T03:39:23.381Z,28.23
2023-03-05T03:40:23.412Z,27.11
2023-03-05T03:41:23.306Z,28.01
2023-03-05T03:42:23.936Z,25.17
2023-03-05T03:43:23.236Z,28.59
2023-03-05T03:44:23.198Z,32.69
2023-03-05T03:45:23.180Z,30.72
2023-03-05T03:46:23.198Z,27.97
2023-03-05T03:47:23.110Z,29.35
2023-03-05T03:48:23.064Z,28.43
2023-03-05T03:49:23.033Z,28.30
2023-03-05T03:50:23.008Z,28.33
2023-03-05T03:51:22.988Z,28.90
2023-03-05T03:52:22.969Z,27.31
2023-03-05T03:53:22.894Z,26.52
2023-03-05T03:54:22.870Z,27.76
2023-03-05T03:55:22.823Z,27.51
2023-03-05T03:56:22.799Z,27.74
2023-03-05T03:57:22.782Z,27.90
2023-03-05T03:58:22.731Z,29.87
2023-03-05T03:59:22.699Z,31.76
2023-03-05T04:00:22.667Z,29.14
2023-03-05T04:01:22.635Z,30.59
2023-03-05T04:02:22.647Z,27.67
2023-03-05T04:03:22.590Z,30.26
2023-03-05T04:04:22.588Z,29.47
2023-03-05T04:05:22.513Z,31.32
2023-03-05T04:06:22.450Z,29.10
2023-03-05T04:07:22.458Z,29.45
2023-03-05T04:08:22.378Z,27.70
2023-03-05T04:09:22.339Z,30.05
2023-03-05T04:10:22.301Z,29.88
2023-03-05T04:11:22.277Z,30.10
2023-03-05T04:12:22.239Z,26.77
2023-03-05T04:13:22.205Z,28.95
2023-03-05T04:14:22.170Z,29.43
2023-03-05T04:15:22.204Z,31.60
2023-03-05T04:16:22.232Z,30.17
2023-03-05T04:17:22.084Z,27.17
2023-03-05T04:18:22.035Z,31.15
2023-03-05T04:19:22.001Z,31.09
2023-03-05T04:20:21.971Z,29.77
2023-03-05T04:21:21.943Z,29.83
2023-03-05T04:22:21.923Z,32.31
2023-03-05T04:23:22.053Z,28.73
2023-03-05T04:24:21.856Z,28.33
2023-03-05T04:25:21.816Z,28.80
2023-03-05T04:26:21.785Z,31.22
2023-03-05T04:27:21.759Z,30.72
2023-03-05T04:28:21.722Z,33.28
2023-03-05T04:29:21.699Z,29.52
2023-03-05T04:30:21.663Z,30.21
2023-03-05T04:31:21.718Z,31.97
2023-03-05T04:32:21.640Z,29.82
2023-03-05T04:33:21.576Z,29.04
2023-03-05T04:34:21.549Z,31.93
2023-03-05T04:35:21.529Z,29.72
2023-03-05T04:36:21.474Z,27.02
2023-03-05T04:37:21.461Z,28.83
2023-03-05T04:38:21.439Z,27.82
2023-03-05T04:39:21.408Z,27.88
2023-03-05T04:40:21.357Z,29.94
2023-03-05T04:41:21.321Z,30.81
2023-03-05T04:42:21.282Z,30.77
2023-03-05T04:43:21.255Z,28.86
2023-03-05T04:44:21.219Z,27.10
2023-03-05T04:45:21.188Z,32.87
2023-03-05T04:46:21.258Z,30.38
2023-03-05T04:47:21.122Z,29.99
2023-03-05T04:48:21.090Z,31.06
2023-03-05T04:49:21.074Z,27.57
2023-03-05T04:50:21.029Z,30.38
2023-03-05T04:51:20.990Z,30.64
2023-03-05T04:52:20.982Z,30.39
2023-03-05T04:53:20.926Z,31.16
2023-03-05T04:54:20.921Z,31.07
2023-03-05T04:55:20.887Z,31.79
2023-03-05T04:56:20.816Z,28.50
2023-03-05T04:57:22.683Z,28.38
2023-03-05T04:58:20.758Z,33.74
2023-03-05T04:59:20.720Z,32.29
2023-03-05T05:00:20.688Z,27.59
2023-03-05T05:01:20.731Z,28.82
2023-03-05T05:02:20.625Z,29.33
2023-03-05T05:03:20.586Z,27.64
2023-03-05T05:04:20.559Z,30.15
2023-03-05T05:05:20.579Z,32.21
2023-03-05T05:06:20.493Z,31.42
2023-03-05T05:07:20.458Z,31.35
2023-03-05T05:08:20.430Z,29.69
2023-03-05T05:09:20.401Z,29.01
2023-03-05T05:10:20.368Z,28.70
2023-03-05T05:11:20.366Z,27.24
2023-03-05T05:12:20.313Z,27.35
2023-03-05T05:13:20.275Z,28.34
2023-03-05T05:14:20.251Z,28.57
2023-03-05T05:15:20.227Z,30.22
2023-03-05T05:16:20.240Z,31.03
2023-03-05T05:17:20.162Z,30.74
2023-03-05T05:18:20.137Z,28.13
2023-03-05T05:19:20.961Z,30.67
2023-03-05T05:20:20.101Z,29.10
2023-03-05T05:21:20.054Z,28.70
2023-03-05T05:22:20.032Z,27.83
2023-03-05T05:23:20.006Z,29.07
2023-03-05T05:24:19.972Z,31.31
2023-03-05T05:25:19.957Z,30.18
2023-03-05T05:26:19.922Z,31.47
2023-03-05T05:27:19.908Z,28.24
2023-03-05T05:28:19.864Z,28.87
2023-03-05T05:29:19.832Z,28.55
2023-03-05T05:30:19.808Z,27.75
2023-03-05T05:31:19.827Z,29.57
2023-03-05T05:32:19.786Z,32.01
2023-03-05T05:33:20.435Z,29.53
2023-03-05T05:34:19.690Z,33.08
2023-03-05T05:35:19.719Z,27.47
2023-03-05T05:36:19.623Z,32.07
2023-03-05T05:37:19.595Z,32.36
2023-03-05T05:38:19.564Z,27.24
2023-03-05T05:39:20.498Z,28.84
2023-03-05T05:40:19.518Z,29.08
2023-03-05T05:41:19.488Z,29.62
2023-03-05T05:42:19.453Z,29.97
2023-03-05T05:43:19.447Z,29.55
2023-03-05T05:44:19.396Z,29.38
2023-03-05T05:45:19.476Z,29.43
2023-03-05T05:46:19.504Z,26.99
2023-03-05T05:47:19.309Z,25.00
2023-03-05T05:48:19.277Z,30.50
2023-03-05T05:49:19.249Z,31.78
2023-03-05T05:50:19.227Z,27.71
2023-03-05T05:51:19.192Z,29.64
2023-03-05T05:52:19.163Z,30.08
2023-03-05T05:53:19.131Z,30.28
2023-03-05T05:54:19.103Z,28.00
2023-03-05T05:55:19.070Z,28.22
2023-03-05T05:56:19.044Z,28.26
2023-03-05T05:57:19.009Z,30.35
2023-03-05T05:58:18.980Z,29.06
2023-03-05T05:59:18.981Z,26.94
2023-03-05T06:00:18.924Z,28.38
2023-03-05T06:01:18.885Z,32.11
2023-03-05T06:02:18.939Z,30.33
2023-03-05T06:03:18.860Z,28.54
2023-03-05T06:04:18.797Z,30.06
2023-03-05T06:05:18.761Z,30.97
2023-03-05T06:06:18.756Z,32.07
2023-03-05T06:07:18.710Z,26.53
2023-03-05T06:08:18.675Z,32.33
2023-03-05T06:09:18.669Z,27.62
2023-03-05T06:10:18.616Z,28.36
2023-03-05T06:11:19.538Z,26.90
2023-03-05T06:12:18.557Z,27.06
2023-03-05T06:13:18.516Z,26.49
2023-03-05T06:14:18.495Z,28.18
2023-03-05T06:15:18.480Z,31.09
2023-03-05T06:16:18.473Z,27.92
2023-03-05T06:17:28.746Z,29.79
2023-03-05T06:18:18.398Z,30.12
2023-03-05T06:19:18.335Z,30.88
2023-03-05T06:20:18.307Z,30.83
2023-03-05T06:21:18.266Z,32.44
2023-03-05T06:22:18.239Z,31.50
2023-03-05T06:23:18.257Z,30.29
2023-03-05T06:24:18.179Z,27.61
2023-03-05T06:25:18.139Z,27.76
2023-03-05T06:26:18.108Z,27.29
2023-03-05T06:27:18.085Z,26.60
2023-03-05T06:28:18.047Z,26.99
2023-03-05T06:29:18.021Z,26.37
2023-03-05T06:30:17.995Z,28.72
2023-03-05T06:31:17.984Z,28.00
2023-03-05T06:32:17.985Z,29.21
2023-03-05T06:33:17.905Z,31.22
2023-03-05T06:34:17.885Z,29.02
2023-03-05T06:35:17.842Z,30.08
2023-03-05T06:36:17.810Z,31.08
2023-03-05T06:37:17.789Z,29.55
2023-03-05T06:38:17.748Z,29.02
2023-03-05T06:39:17.708Z,29.22
2023-03-05T06:40:17.679Z,28.02
2023-03-05T06:41:17.644Z,29.59
2023-03-05T06:42:17.662Z,30.30
2023-03-05T06:43:17.583Z,29.07
2023-03-05T06:44:17.559Z,30.96
2023-03-05T06:45:17.534Z,30.15
2023-03-05T06:46:17.588Z,29.97
2023-03-05T06:47:17.505Z,28.65
2023-03-05T06:48:17.454Z,32.74
2023-03-05T06:49:17.420Z,30.52
2023-03-05T06:50:17.409Z,31.38
2023-03-05T06:51:17.367Z,30.87
2023-03-05T06:52:17.338Z,29.96
2023-03-05T06:53:17.305Z,28.48
2023-03-05T06:54:17.285Z,29.59
2023-03-05T06:55:17.255Z,30.95
2023-03-05T06:56:17.239Z,30.47
2023-03-05T06:57:17.202Z,27.30
2023-03-05T06:58:17.172Z,31.43
2023-03-05T06:59:17.145Z,28.44
2023-03-05T07:00:17.120Z,32.38
2023-03-05T07:01:17.191Z,31.13
2023-03-05T07:02:17.097Z,33.49
2023-03-05T07:03:17.059Z,31.36
2023-03-05T07:04:16.994Z,31.82
2023-03-05T07:05:17.494Z,31.07
2023-03-05T07:06:16.930Z,29.10
2023-03-05T07:07:16.899Z,32.72
2023-03-05T07:08:16.855Z,33.11
2023-03-05T07:09:16.831Z,26.99
2023-03-05T07:10:16.823Z,30.08
2023-03-05T07:11:16.771Z,32.88
2023-03-05T07:12:16.751Z,28.43
2023-03-05T07:13:16.706Z,31.02
2023-03-05T07:14:16.668Z,28.18
2023-03-05T07:15:16.631Z,32.44
2023-03-05T07:16:16.762Z,31.16
2023-03-05T07:17:16.575Z,31.96
2023-03-05T07:18:16.541Z,27.17
2023-03-05T07:19:16.532Z,29.36
2023-03-05T07:20:16.491Z,28.85
2023-03-05T07:21:16.454Z,30.11
2023-03-05T07:22:16.471Z,30.96
2023-03-05T07:23:16.393Z,31.52
2023-03-05T07:24:16.367Z,28.98
2023-03-05T07:25:16.332Z,29.90
2023-03-05T07:26:16.299Z,27.99
2023-03-05T07:27:16.265Z,27.89
2023-03-05T07:28:16.238Z,28.96
2023-03-05T07:29:16.208Z,29.51
2023-03-05T07:30:16.205Z,32.82
2023-03-05T07:31:16.256Z,32.26
2023-03-05T07:32:16.204Z,30.82
2023-03-05T07:33:16.093Z,29.94
2023-03-05T07:34:16.062Z,31.23
2023-03-05T07:35:16.074Z,27.21
2023-03-05T07:36:16.013Z,28.10
2023-03-05T07:37:15.971Z,32.47
2023-03-05T07:38:15.944Z,32.00
2023-03-05T07:39:15.917Z,28.80
2023-03-05T07:40:15.892Z,31.37
2023-03-05T07:41:15.893Z,31.03
2023-03-05T07:42:15.863Z,32.48
2023-03-05T07:43:15.796Z,28.38
2023-03-05T07:44:15.764Z,31.35
2023-03-05T07:45:15.736Z,30.55
2023-03-05T07:46:15.756Z,32.61
2023-03-05T07:47:15.677Z,33.36
2023-03-05T07:48:15.650Z,32.74
2023-03-05T07:49:15.624Z,32.04
2023-03-05T07:50:15.596Z,30.25
2023-03-05T07:51:15.588Z,29.55
2023-03-05T07:52:15.525Z,31.87
2023-03-05T07:53:15.499Z,29.32
2023-03-05T07:54:15.465Z,31.25
2023-03-05T07:55:15.454Z,30.96
2023-03-05T07:56:15.404Z,32.95
2023-03-05T07:57:15.382Z,31.26
2023-03-05T07:58:15.356Z,31.17
2023-03-05T07:59:15.331Z,30.74
2023-03-05T08:00:15.289Z,31.41
2023-03-05T08:01:15.254Z,36.06
2023-03-05T08:02:15.293Z,28.53
2023-03-05T08:03:15.207Z,32.51
2023-03-05T08:04:15.278Z,30.79
2023-03-05T08:05:15.166Z,31.83
2023-03-05T08:06:15.118Z,33.44
2023-03-05T08:07:15.117Z,33.19
2023-03-05T08:08:15.078Z,32.64
2023-03-05T08:09:15.022Z,30.69
2023-03-05T08:10:14.992Z,31.07
2023-03-05T08:11:14.951Z,30.78
2023-03-05T08:12:14.921Z,31.78
2023-03-05T08:13:15.069Z,31.30
2023-03-05T08:14:14.858Z,30.84
2023-03-05T08:15:14.852Z,30.92
2023-03-05T08:16:14.915Z,30.66
2023-03-05T08:17:14.772Z,31.78
2023-03-05T08:18:14.758Z,33.05
2023-03-05T08:19:14.718Z,32.95
2023-03-05T08:20:14.679Z,31.34
2023-03-05T08:21:14.651Z,32.57
2023-03-05T08:22:14.622Z,30.05
2023-03-05T08:23:14.620Z,34.11
2023-03-05T08:24:14.594Z,34.05
2023-03-05T08:25:14.536Z,34.06
2023-03-05T08:26:14.508Z,32.54
2023-03-05T08:27:14.470Z,36.80
2023-03-05T08:28:14.443Z,36.20
2023-03-05T08:29:14.416Z,31.19
2023-03-05T08:30:14.390Z,32.45
2023-03-05T08:31:14.406Z,34.99
2023-03-05T08:32:14.392Z,33.49
2023-03-05T08:33:14.326Z,32.07
2023-03-05T08:34:14.282Z,35.48
2023-03-05T08:35:14.214Z,35.24
2023-03-05T08:36:14.184Z,31.38
2023-03-05T08:37:14.153Z,32.86
2023-03-05T08:38:14.119Z,34.70
2023-03-05T08:39:14.101Z,34.78
2023-03-05T08:40:14.049Z,34.74
2023-03-05T08:41:14.019Z,34.06
2023-03-05T08:42:13.990Z,36.03
2023-03-05T08:43:13.967Z,34.75
2023-03-05T08:44:13.930Z,29.50
2023-03-05T08:45:13.904Z,33.10
2023-03-05T08:46:13.916Z,35.71
2023-03-05T08:47:13.839Z,33.20
2023-03-05T08:48:13.808Z,31.79
2023-03-05T08:49:13.775Z,32.47
2023-03-05T08:50:13.747Z,34.08
2023-03-05T08:51:13.727Z,33.98
2023-03-05T08:52:13.687Z,32.45
2023-03-05T08:53:14.227Z,34.76
2023-03-05T08:54:13.619Z,33.68
2023-03-05T08:55:13.610Z,35.31
2023-03-05T08:56:13.560Z,35.34
2023-03-05T08:57:13.533Z,33.22
2023-03-05T08:58:13.498Z,35.10
2023-03-05T08:59:13.805Z,35.72
2023-03-05T09:00:13.437Z,33.64
2023-03-05T09:01:13.404Z,33.45
2023-03-05T09:02:13.494Z,32.43
2023-03-05T09:03:13.398Z,32.80
2023-03-05T09:04:13.316Z,32.94
2023-03-05T09:05:13.281Z,34.20
2023-03-05T09:06:13.260Z,36.18
2023-03-05T09:07:13.224Z,34.94
2023-03-05T09:08:13.183Z,38.64
2023-03-05T09:09:13.528Z,37.35
2023-03-05T09:10:13.110Z,38.70
2023-03-05T09:11:13.125Z,33.28
2023-03-05T09:12:13.119Z,37.25
2023-03-05T09:13:13.015Z,37.30
2023-03-05T09:14:12.976Z,36.00
2023-03-05T09:15:12.951Z,32.01
2023-03-05T09:16:12.968Z,37.87
2023-03-05T09:17:12.866Z,33.56
2023-03-05T09:18:12.841Z,35.59
2023-03-05T09:19:12.832Z,36.84
2023-03-05T09:20:12.763Z,34.36
2023-03-05T09:21:12.721Z,35.89
2023-03-05T09:22:12.688Z,34.48
2023-03-05T09:23:12.671Z,36.17
2023-03-05T09:24:12.628Z,35.65
2023-03-05T09:25:12.658Z,38.32
2023-03-05T09:26:12.569Z,36.90
2023-03-05T09:27:12.563Z,36.45
2023-03-05T09:28:12.502Z,38.31
2023-03-05T09:29:12.491Z,34.77
2023-03-05T09:30:12.454Z,38.35
2023-03-05T09:31:12.459Z,39.31
2023-03-05T09:32:12.396Z,37.64
2023-03-05T09:33:12.356Z,35.83
2023-03-05T09:34:12.330Z,37.51
2023-03-05T09:35:12.308Z,35.33
2023-03-05T09:36:12.284Z,38.09
2023-03-05T09:37:12.247Z,35.96
2023-03-05T09:38:12.218Z,39.54
2023-03-05T09:39:12.184Z,35.33
2023-03-05T09:40:12.155Z,36.77
2023-03-05T09:41:12.122Z,36.75
2023-03-05T09:42:12.083Z,34.73
2023-03-05T09:43:12.075Z,34.76
2023-03-05T09:44:12.019Z,36.55
2023-03-05T09:45:11.984Z,36.56
2023-03-05T09:46:12.041Z,35.00
2023-03-05T09:47:12.964Z,34.86
2023-03-05T09:48:11.889Z,35.01
2023-03-05T09:49:11.861Z,35.29
2023-03-05T09:50:11.828Z,36.70
2023-03-05T09:51:11.801Z,36.51
2023-03-05T09:52:11.783Z,39.12
2023-03-05T09:53:11.743Z,37.71
2023-03-05T09:54:11.735Z,40.52
2023-03-05T09:55:11.677Z,39.91
2023-03-05T09:56:11.645Z,38.07
2023-03-05T09:57:11.615Z,39.45
2023-03-05T09:58:11.602Z,39.76
2023-03-05T09:59:11.589Z,37.24
2023-03-05T10:00:11.540Z,37.66
2023-03-05T10:01:11.529Z,38.40
2023-03-05T10:02:11.479Z,37.47
2023-03-05T10:03:11.481Z,38.26
2023-03-05T10:04:11.506Z,40.17
2023-03-05T10:05:11.385Z,36.86
2023-03-05T10:06:11.349Z,37.73
2023-03-05T10:07:11.317Z,38.46
2023-03-05T10:08:11.289Z,39.80
2023-03-05T10:09:11.259Z,37.24
2023-03-05T10:10:11.244Z,42.22
2023-03-05T10:11:11.224Z,38.27
2023-03-05T10:12:11.159Z,37.98
2023-03-05T10:13:11.146Z,38.01
2023-03-05T10:14:11.117Z,40.01
2023-03-05T10:15:11.092Z,39.46
2023-03-05T10:16:11.072Z,38.52
2023-03-05T10:17:11.013Z,38.79
2023-03-05T10:18:10.973Z,39.84
2023-03-05T10:19:10.954Z,41.66
2023-03-05T10:20:10.927Z,39.29
2023-03-05T10:21:10.896Z,42.00
2023-03-05T10:22:10.861Z,40.43
2023-03-05T10:23:10.825Z,37.80
2023-03-05T10:24:10.796Z,40.49
2023-03-05T10:25:10.779Z,37.98
2023-03-05T10:26:10.737Z,42.17
2023-03-05T10:27:10.767Z,38.67
2023-03-05T10:28:10.679Z,41.57
2023-03-05T10:29:10.659Z,41.41
2023-03-05T10:30:10.617Z,41.50
2023-03-05T10:31:10.613Z,41.64
2023-03-05T10:32:10.704Z,37.88
2023-03-05T10:33:10.524Z,40.43
2023-03-05T10:34:10.512Z,42.07
2023-03-05T10:35:10.461Z,39.66
2023-03-05T10:36:10.426Z,42.43
2023-03-05T10:37:10.409Z,44.17
2023-03-05T10:38:10.370Z,41.64
2023-03-05T10:39:10.336Z,41.62
2023-03-05T10:40:10.313Z,43.23
2023-03-05T10:41:10.291Z,40.10
2023-03-05T10:42:10.263Z,41.75
2023-03-05T10:43:10.225Z,40.54
2023-03-05T10:44:10.193Z,42.52
2023-03-05T10:45:10.156Z,39.77
2023-03-05T10:46:10.183Z,43.69
2023-03-05T10:47:10.132Z,39.77
2023-03-05T10:48:10.077Z,41.88
2023-03-05T10:49:10.044Z,38.81
2023-03-05T10:50:10.021Z,39.82
2023-03-05T10:51:09.989Z,41.37
2023-03-05T10:52:09.956Z,41.91
2023-03-05T10:53:09.933Z,42.92
2023-03-05T10:54:09.894Z,44.34
2023-03-05T10:55:09.875Z,42.26
2023-03-05T10:56:09.847Z,42.31
2023-03-05T10:57:09.825Z,43.34
2023-03-05T10:58:09.790Z,44.42
2023-03-05T10:59:09.756Z,41.93
2023-03-05T11:00:09.727Z,41.09
2023-03-05T11:01:09.731Z,42.68
2023-03-05T11:02:09.829Z,44.00
2023-03-05T11:03:09.671Z,40.24
2023-03-05T11:04:09.621Z,41.91
2023-03-05T11:05:09.588Z,41.62
2023-03-05T11:06:09.564Z,44.34
2023-03-05T11:07:09.536Z,41.93
2023-03-05T11:08:09.502Z,40.32
2023-03-05T11:09:09.480Z,43.15
2023-03-05T11:10:09.442Z,43.33
2023-03-05T11:11:09.422Z,43.52
2023-03-05T11:12:09.383Z,44.45
2023-03-05T11:13:09.354Z,41.73
2023-03-05T11:14:09.319Z,45.96
2023-03-05T11:15:09.288Z,45.39
2023-03-05T11:16:09.350Z,45.34
2023-03-05T11:17:09.223Z,42.00
2023-03-05T11:18:09.190Z,42.58
2023-03-05T11:19:09.188Z,42.37
2023-03-05T11:20:09.136Z,43.31
2023-03-05T11:21:09.094Z,42.88
2023-03-05T11:22:09.063Z,43.53
2023-03-05T11:23:09.049Z,45.22
2023-03-05T11:24:08.993Z,43.76
2023-03-05T11:25:08.972Z,43.45
2023-03-05T11:26:08.940Z,45.34
2023-03-05T11:27:08.903Z,44.55
2023-03-05T11:28:08.867Z,42.89
2023-03-05T11:29:08.835Z,42.42
2023-03-05T11:30:08.803Z,43.09
2023-03-05T11:31:09.043Z,45.23
2023-03-05T11:32:08.793Z,46.03
2023-03-05T11:33:10.361Z,47.66
2023-03-05T11:34:08.685Z,48.30
2023-03-05T11:35:08.678Z,48.67
2023-03-05T11:36:08.622Z,47.88
2023-03-05T11:37:08.599Z,49.39
2023-03-05T11:38:08.556Z,47.47
2023-03-05T11:39:08.535Z,45.88
2023-03-05T11:40:08.488Z,47.76
2023-03-05T11:41:08.459Z,45.96
2023-03-05T11:42:08.439Z,44.45
2023-03-05T11:43:08.395Z,46.85
2023-03-05T11:44:08.365Z,45.88
2023-03-05T11:45:08.348Z,46.37
2023-03-05T11:46:08.386Z,47.44
2023-03-05T11:47:08.267Z,46.86
2023-03-05T11:48:08.243Z,46.75
2023-03-05T11:49:08.236Z,45.50
2023-03-05T11:50:08.178Z,47.57
2023-03-05T11:51:08.169Z,45.86
2023-03-05T11:52:08.126Z,45.77
2023-03-05T11:53:08.093Z,48.54
2023-03-05T11:54:08.066Z,46.38
2023-03-05T11:55:08.040Z,43.83
2023-03-05T11:56:08.015Z,43.65
2023-03-05T11:57:07.990Z,44.48
2023-03-05T11:58:07.968Z,47.94
2023-03-05T11:59:07.938Z,46.94
2023-03-05T12:00:07.910Z,43.47
2023-03-05T12:01:07.876Z,41.02
2023-03-05T12:02:07.851Z,46.49
2023-03-05T12:03:08.004Z,47.11
2023-03-05T12:04:07.821Z,45.13
2023-03-05T12:05:07.836Z,46.58
2023-03-05T12:06:07.745Z,49.23
2023-03-05T12:07:07.733Z,45.34
2023-03-05T12:08:07.678Z,45.62
2023-03-05T12:09:07.648Z,48.62
2023-03-05T12:10:07.629Z,46.05
2023-03-05T12:11:07.581Z,47.69
2023-03-05T12:12:07.550Z,45.78
2023-03-05T12:13:07.524Z,47.94
2023-03-05T12:14:07.517Z,45.49
2023-03-05T12:15:07.455Z,43.54
2023-03-05T12:16:07.484Z,45.44
2023-03-05T12:17:07.395Z,45.51
2023-03-05T12:18:07.357Z,43.43
2023-03-05T12:19:07.314Z,46.53
2023-03-05T12:20:07.343Z,46.39
2023-03-05T12:21:07.252Z,47.36
2023-03-05T12:22:07.209Z,44.80
2023-03-05T12:23:07.201Z,45.49
2023-03-05T12:24:07.140Z,48.93
2023-03-05T12:25:07.112Z,44.37
2023-03-05T12:26:07.076Z,48.04
2023-03-05T12:27:07.038Z,46.73
2023-03-05T12:28:07.003Z,44.33
2023-03-05T12:29:06.977Z,48.59
2023-03-05T12:30:06.942Z,46.77
2023-03-05T12:31:06.941Z,47.18
2023-03-05T12:32:07.588Z,44.27
2023-03-05T12:33:06.836Z,44.29
2023-03-05T12:34:06.802Z,45.89
2023-03-05T12:35:06.769Z,45.77
2023-03-05T12:36:06.778Z,48.22
2023-03-05T12:37:06.704Z,48.49
2023-03-05T12:38:24.496Z,45.84
2023-03-05T12:39:06.649Z,46.22
2023-03-05T12:40:06.583Z,47.24
2023-03-05T12:41:06.540Z,48.46
2023-03-05T12:42:06.507Z,46.96
2023-03-05T12:43:06.483Z,51.06
2023-03-05T12:44:06.436Z,52.89
2023-03-05T12:45:06.412Z,48.81
2023-03-05T12:46:06.376Z,50.66
2023-03-05T12:47:06.341Z,47.88
2023-03-05T12:48:06.319Z,47.94
2023-03-05T12:49:06.276Z,49.75
2023-03-05T12:50:06.240Z,49.41
2023-03-05T12:51:06.201Z,47.96
2023-03-05T12:52:06.166Z,47.96
2023-03-05T12:53:06.188Z,44.36
2023-03-05T12:54:06.112Z,47.04
2023-03-05T12:55:06.096Z,40.62
2023-03-05T12:56:06.044Z,49.46
2023-03-05T12:57:06.042Z,47.32
2023-03-05T12:58:05.979Z,46.45
2023-03-05T12:59:05.950Z,46.10
2023-03-05T13:00:05.912Z,44.71
2023-03-05T13:01:05.913Z,50.23
2023-03-05T13:02:05.836Z,46.67
2023-03-05T13:03:05.846Z,47.57
2023-03-05T13:04:05.797Z,49.05
2023-03-05T13:05:05.736Z,44.78
2023-03-05T13:06:05.730Z,45.39
2023-03-05T13:07:05.661Z,46.15
2023-03-05T13:08:05.630Z,46.79
2023-03-05T13:09:05.598Z,45.84
2023-03-05T13:10:05.576Z,46.78
2023-03-05T13:11:05.584Z,48.81
2023-03-05T13:12:05.604Z,46.66
2023-03-05T13:13:05.498Z,45.72
2023-03-05T13:14:05.462Z,48.88
2023-03-05T13:15:05.413Z,44.36
2023-03-05T13:16:05.465Z,45.58
2023-03-05T13:17:05.342Z,45.85
2023-03-05T13:18:05.308Z,44.07
2023-03-05T13:19:05.275Z,48.42
2023-03-05T13:20:05.236Z,45.18
2023-03-05T13:21:05.206Z,46.59
2023-03-05T13:22:05.164Z,45.85
2023-03-05T13:23:05.145Z,43.74
2023-03-05T13:24:05.082Z,44.65
2023-03-05T13:25:05.048Z,45.64
2023-03-05T13:26:05.016Z,47.78
2023-03-05T13:27:05.005Z,43.92
2023-03-05T13:28:04.945Z,43.65
2023-03-05T13:29:04.935Z,46.18
2023-03-05T13:30:04.858Z,46.25
2023-03-05T13:31:04.841Z,46.89
2023-03-05T13:32:04.829Z,48.51
2023-03-05T13:33:04.822Z,48.78
2023-03-05T13:34:04.731Z,47.53
2023-03-05T13:35:04.694Z,45.04
2023-03-05T13:36:04.668Z,47.47
2023-03-05T13:37:04.621Z,48.33
2023-03-05T13:38:04.592Z,44.39
2023-03-05T13:39:04.551Z,46.06
2023-03-05T13:40:04.521Z,46.82
2023-03-05T13:41:04.499Z,46.75
2023-03-05T13:42:04.443Z,47.05